sensor_id;sensor_type;location;lat;lon;timestamp;temperature;humidity
12164;DHT22;6145;50.192;10.064;2023-06-01T00:00:55;18.60;50.40
12164;DHT22;6145;50.192;10.064;2023-06-01T00:03:26;18.60;50.40
12164;DHT22;6145;50.192;10.064;2023-06-01T00:05:55;18.50;50.50
12164;DHT22;6145;50.192;10.064;2023-06-01T00:08:22;18.50;50.50
12164;DHT22;6145;50.192;10.064;2023-06-01T00:10:49;18.40;50.60
12164;DHT22;6145;50.192;10.064;2023-06-01T00:13:16;18.40;51.00
12164;DHT22;6145;50.192;10.064;2023-06-01T00:15:43;20.50;52.90
12164;DHT22;6145;50.192;10.064;2023-06-01T00:18:10;18.30;51.10
12164;DHT22;6145;50.192;10.064;2023-06-01T00:20:39;18.20;51.10
12164;DHT22;6145;50.192;10.064;2023-06-01T00:23:06;18.20;51.10
12164;DHT22;6145;50.192;10.064;2023-06-01T00:25:34;18.20;51.30
12164;DHT22;6145;50.192;10.064;2023-06-01T00:28:01;18.30;51.50
12164;DHT22;6145;50.192;10.064;2023-06-01T00:30:28;18.50;51.80
12164;DHT22;6145;50.192;10.064;2023-06-01T00:32:55;18.10;51.70
12164;DHT22;6145;50.192;10.064;2023-06-01T00:35:22;18.00;51.70
12164;DHT22;6145;50.192;10.064;2023-06-01T00:37:51;18.50;52.20
12164;DHT22;6145;50.192;10.064;2023-06-01T00:40:18;17.90;51.80
12164;DHT22;6145;50.192;10.064;2023-06-01T00:42:45;17.90;52.00
12164;DHT22;6145;50.192;10.064;2023-06-01T00:45:12;17.80;52.20
12164;DHT22;6145;50.192;10.064;2023-06-01T00:47:40;18.10;52.40
12164;DHT22;6145;50.192;10.064;2023-06-01T00:50:09;17.80;52.30
12164;DHT22;6145;50.192;10.064;2023-06-01T00:52:37;17.70;52.30
12164;DHT22;6145;50.192;10.064;2023-06-01T00:55:09;17.60;52.20
12164;DHT22;6145;50.192;10.064;2023-06-01T00:57:37;17.60;52.40
12164;DHT22;6145;50.192;10.064;2023-06-01T01:00:05;17.80;52.70
12164;DHT22;6145;50.192;10.064;2023-06-01T01:02:36;17.50;52.50
12164;DHT22;6145;50.192;10.064;2023-06-01T01:05:04;17.40;52.60
12164;DHT22;6145;50.192;10.064;2023-06-01T01:07:42;17.40;52.60
12164;DHT22;6145;50.192;10.064;2023-06-01T01:10:25;17.90;53.20
12164;DHT22;6145;50.192;10.064;2023-06-01T01:12:59;17.40;52.90
12164;DHT22;6145;50.192;10.064;2023-06-01T01:15:34;17.30;52.90
12164;DHT22;6145;50.192;10.064;2023-06-01T01:18:11;17.20;52.90
12164;DHT22;6145;50.192;10.064;2023-06-01T01:20:48;17.20;52.90
12164;DHT22;6145;50.192;10.064;2023-06-01T01:23:35;17.20;53.10
12164;DHT22;6145;50.192;10.064;2023-06-01T01:26:21;17.10;53.10
12164;DHT22;6145;50.192;10.064;2023-06-01T01:28:54;17.40;53.60
12164;DHT22;6145;50.192;10.064;2023-06-01T01:31:26;17.20;53.30
12164;DHT22;6145;50.192;10.064;2023-06-01T01:33:55;17.00;53.40
12164;DHT22;6145;50.192;10.064;2023-06-01T01:36:23;16.90;53.50
12164;DHT22;6145;50.192;10.064;2023-06-01T01:38:50;16.90;53.80
12164;DHT22;6145;50.192;10.064;2023-06-01T01:41:18;16.90;53.60
12164;DHT22;6145;50.192;10.064;2023-06-01T01:43:45;16.90;53.80
12164;DHT22;6145;50.192;10.064;2023-06-01T01:46:21;16.80;53.70
12164;DHT22;6145;50.192;10.064;2023-06-01T01:48:52;16.80;53.90
12164;DHT22;6145;50.192;10.064;2023-06-01T01:51:27;16.70;53.90
12164;DHT22;6145;50.192;10.064;2023-06-01T01:53:57;16.70;54.00
12164;DHT22;6145;50.192;10.064;2023-06-01T01:56:25;17.10;54.50
12164;DHT22;6145;50.192;10.064;2023-06-01T01:58:53;16.60;54.20
12164;DHT22;6145;50.192;10.064;2023-06-01T02:01:22;16.50;54.20
12164;DHT22;6145;50.192;10.064;2023-06-01T02:03:58;17.10;54.70
12164;DHT22;6145;50.192;10.064;2023-06-01T02:06:25;17.30;55.20
12164;DHT22;6145;50.192;10.064;2023-06-01T02:08:52;16.40;54.30
12164;DHT22;6145;50.192;10.064;2023-06-01T02:11:19;16.30;54.30
12164;DHT22;6145;50.192;10.064;2023-06-01T02:13:46;16.80;55.50
12164;DHT22;6145;50.192;10.064;2023-06-01T02:16:13;16.30;54.70
12164;DHT22;6145;50.192;10.064;2023-06-01T02:18:44;16.20;54.70
12164;DHT22;6145;50.192;10.064;2023-06-01T02:21:12;16.20;54.80
12164;DHT22;6145;50.192;10.064;2023-06-01T02:23:40;16.10;54.80
12164;DHT22;6145;50.192;10.064;2023-06-01T02:26:07;16.80;55.50
12164;DHT22;6145;50.192;10.064;2023-06-01T02:28:36;16.10;55.10
12164;DHT22;6145;50.192;10.064;2023-06-01T02:31:03;16.00;55.00
12164;DHT22;6145;50.192;10.064;2023-06-01T02:33:30;16.00;55.10
12164;DHT22;6145;50.192;10.064;2023-06-01T02:35:59;16.30;55.30
12164;DHT22;6145;50.192;10.064;2023-06-01T02:38:27;15.90;55.20
12164;DHT22;6145;50.192;10.064;2023-06-01T02:40:54;15.90;55.30
12164;DHT22;6145;50.192;10.064;2023-06-01T02:43:21;15.90;55.30
12164;DHT22;6145;50.192;10.064;2023-06-01T02:45:48;15.80;55.40
12164;DHT22;6145;50.192;10.064;2023-06-01T02:48:15;15.70;55.40
12164;DHT22;6145;50.192;10.064;2023-06-01T02:50:43;15.70;56.10
12164;DHT22;6145;50.192;10.064;2023-06-01T02:53:11;15.70;55.50
12164;DHT22;6145;50.192;10.064;2023-06-01T02:55:38;15.60;55.50
12164;DHT22;6145;50.192;10.064;2023-06-01T02:58:05;16.10;56.10
12164;DHT22;6145;50.192;10.064;2023-06-01T03:00:33;15.60;55.70
12164;DHT22;6145;50.192;10.064;2023-06-01T03:03:00;15.50;56.40
12164;DHT22;6145;50.192;10.064;2023-06-01T03:05:29;16.60;56.80
12164;DHT22;6145;50.192;10.064;2023-06-01T03:07:58;16.00;56.30
12164;DHT22;6145;50.192;10.064;2023-06-01T03:10:27;15.40;55.90
12164;DHT22;6145;50.192;10.064;2023-06-01T03:12:54;15.40;56.00
12164;DHT22;6145;50.192;10.064;2023-06-01T03:15:21;15.30;56.00
12164;DHT22;6145;50.192;10.064;2023-06-01T03:17:47;15.40;56.20
12164;DHT22;6145;50.192;10.064;2023-06-01T03:20:15;15.20;56.10
12164;DHT22;6145;50.192;10.064;2023-06-01T03:22:42;15.20;56.20
12164;DHT22;6145;50.192;10.064;2023-06-01T03:25:09;15.20;56.40
12164;DHT22;6145;50.192;10.064;2023-06-01T03:27:39;15.10;56.30
12164;DHT22;6145;50.192;10.064;2023-06-01T03:30:07;15.10;56.50
12164;DHT22;6145;50.192;10.064;2023-06-01T03:32:36;15.00;56.50
12164;DHT22;6145;50.192;10.064;2023-06-01T03:35:04;15.00;56.70
12164;DHT22;6145;50.192;10.064;2023-06-01T03:37:33;15.00;56.80
12164;DHT22;6145;50.192;10.064;2023-06-01T03:40:00;14.90;56.70
12164;DHT22;6145;50.192;10.064;2023-06-01T03:42:28;14.90;56.90
12164;DHT22;6145;50.192;10.064;2023-06-01T03:44:57;14.90;56.90
12164;DHT22;6145;50.192;10.064;2023-06-01T03:47:23;15.30;57.40
12164;DHT22;6145;50.192;10.064;2023-06-01T03:49:50;14.80;57.00
12164;DHT22;6145;50.192;10.064;2023-06-01T03:52:17;14.80;57.10
12164;DHT22;6145;50.192;10.064;2023-06-01T03:54:44;14.70;57.10
12164;DHT22;6145;50.192;10.064;2023-06-01T03:57:10;14.70;57.20
12164;DHT22;6145;50.192;10.064;2023-06-01T03:59:37;14.70;57.40
12164;DHT22;6145;50.192;10.064;2023-06-01T04:02:06;14.70;57.30
12164;DHT22;6145;50.192;10.064;2023-06-01T04:04:35;14.60;57.40
12164;DHT22;6145;50.192;10.064;2023-06-01T04:07:03;14.60;57.40
12164;DHT22;6145;50.192;10.064;2023-06-01T04:09:30;14.60;57.60
12164;DHT22;6145;50.192;10.064;2023-06-01T04:11:57;14.60;57.50
12164;DHT22;6145;50.192;10.064;2023-06-01T04:14:24;14.60;57.70
12164;DHT22;6145;50.192;10.064;2023-06-01T04:16:51;14.50;57.70
12164;DHT22;6145;50.192;10.064;2023-06-01T04:19:19;14.50;57.80
12164;DHT22;6145;50.192;10.064;2023-06-01T04:21:46;14.70;58.00
12164;DHT22;6145;50.192;10.064;2023-06-01T04:24:22;14.50;57.90
12164;DHT22;6145;50.192;10.064;2023-06-01T04:26:49;14.50;58.00
12164;DHT22;6145;50.192;10.064;2023-06-01T04:29:16;14.50;58.10
12164;DHT22;6145;50.192;10.064;2023-06-01T04:31:44;14.40;58.80
12164;DHT22;6145;50.192;10.064;2023-06-01T04:34:11;14.40;58.40
12164;DHT22;6145;50.192;10.064;2023-06-01T04:36:40;14.30;58.80
12164;DHT22;6145;50.192;10.064;2023-06-01T04:39:07;14.40;58.80
12164;DHT22;6145;50.192;10.064;2023-06-01T04:41:35;14.30;58.80
12164;DHT22;6145;50.192;10.064;2023-06-01T04:44:02;14.30;58.70
12164;DHT22;6145;50.192;10.064;2023-06-01T04:46:31;14.30;59.00
12164;DHT22;6145;50.192;10.064;2023-06-01T04:48:59;14.30;59.20
12164;DHT22;6145;50.192;10.064;2023-06-01T04:51:26;14.30;59.00
12164;DHT22;6145;50.192;10.064;2023-06-01T04:53:56;14.40;59.80
12164;DHT22;6145;50.192;10.064;2023-06-01T04:56:26;14.30;59.10
12164;DHT22;6145;50.192;10.064;2023-06-01T04:58:55;14.30;59.20
12164;DHT22;6145;50.192;10.064;2023-06-01T05:01:22;14.90;59.80
12164;DHT22;6145;50.192;10.064;2023-06-01T05:03:51;14.30;59.30
12164;DHT22;6145;50.192;10.064;2023-06-01T05:06:21;14.20;59.20
12164;DHT22;6145;50.192;10.064;2023-06-01T05:08:47;14.20;59.30
12164;DHT22;6145;50.192;10.064;2023-06-01T05:11:16;14.30;59.50
12164;DHT22;6145;50.192;10.064;2023-06-01T05:13:43;14.20;59.60
12164;DHT22;6145;50.192;10.064;2023-06-01T05:16:10;14.20;60.00
12164;DHT22;6145;50.192;10.064;2023-06-01T05:18:38;14.20;59.70
12164;DHT22;6145;50.192;10.064;2023-06-01T05:21:05;14.30;60.00
12164;DHT22;6145;50.192;10.064;2023-06-01T05:23:32;14.20;59.80
12164;DHT22;6145;50.192;10.064;2023-06-01T05:25:59;14.30;59.80
12164;DHT22;6145;50.192;10.064;2023-06-01T05:28:29;14.30;59.90
12164;DHT22;6145;50.192;10.064;2023-06-01T05:30:57;14.30;60.30
12164;DHT22;6145;50.192;10.064;2023-06-01T05:33:27;14.30;60.80
12164;DHT22;6145;50.192;10.064;2023-06-01T05:35:54;14.30;61.50
12164;DHT22;6145;50.192;10.064;2023-06-01T05:38:21;14.50;61.10
12164;DHT22;6145;50.192;10.064;2023-06-01T05:40:48;14.30;60.80
12164;DHT22;6145;50.192;10.064;2023-06-01T05:43:15;14.30;61.20
12164;DHT22;6145;50.192;10.064;2023-06-01T05:45:45;14.40;61.10
12164;DHT22;6145;50.192;10.064;2023-06-01T05:48:14;14.40;61.80
12164;DHT22;6145;50.192;10.064;2023-06-01T05:50:41;14.50;62.20
12164;DHT22;6145;50.192;10.064;2023-06-01T05:53:08;14.60;62.90
12164;DHT22;6145;50.192;10.064;2023-06-01T05:55:35;14.90;63.50
12164;DHT22;6145;50.192;10.064;2023-06-01T05:58:02;15.10;64.50
12164;DHT22;6145;50.192;10.064;2023-06-01T06:00:29;15.30;64.50
12164;DHT22;6145;50.192;10.064;2023-06-01T06:02:57;15.80;64.90
12164;DHT22;6145;50.192;10.064;2023-06-01T06:05:24;15.90;64.80
12164;DHT22;6145;50.192;10.064;2023-06-01T06:07:51;16.10;66.20
12164;DHT22;6145;50.192;10.064;2023-06-01T06:10:18;16.40;66.80
12164;DHT22;6145;50.192;10.064;2023-06-01T06:12:45;16.90;66.20
12164;DHT22;6145;50.192;10.064;2023-06-01T06:15:12;17.40;65.30
12164;DHT22;6145;50.192;10.064;2023-06-01T06:17:39;17.80;65.00
12164;DHT22;6145;50.192;10.064;2023-06-01T06:20:08;18.20;64.20
12164;DHT22;6145;50.192;10.064;2023-06-01T06:22:36;18.50;63.00
12164;DHT22;6145;50.192;10.064;2023-06-01T06:25:04;18.70;61.50
12164;DHT22;6145;50.192;10.064;2023-06-01T06:27:31;18.90;61.30
12164;DHT22;6145;50.192;10.064;2023-06-01T06:29:58;19.20;62.00
12164;DHT22;6145;50.192;10.064;2023-06-01T06:32:25;19.60;61.50
12164;DHT22;6145;50.192;10.064;2023-06-01T06:34:52;20.00;60.60
12164;DHT22;6145;50.192;10.064;2023-06-01T06:37:20;20.30;60.00
12164;DHT22;6145;50.192;10.064;2023-06-01T06:39:47;20.90;59.60
12164;DHT22;6145;50.192;10.064;2023-06-01T06:42:14;21.10;58.40
12164;DHT22;6145;50.192;10.064;2023-06-01T06:44:41;21.50;57.70
12164;DHT22;6145;50.192;10.064;2023-06-01T06:47:08;21.80;57.00
12164;DHT22;6145;50.192;10.064;2023-06-01T06:49:35;22.20;56.60
12164;DHT22;6145;50.192;10.064;2023-06-01T06:52:02;22.60;55.70
12164;DHT22;6145;50.192;10.064;2023-06-01T06:54:30;22.90;56.30
12164;DHT22;6145;50.192;10.064;2023-06-01T06:56:57;23.10;54.90
12164;DHT22;6145;50.192;10.064;2023-06-01T06:59:24;23.20;54.00
12164;DHT22;6145;50.192;10.064;2023-06-01T07:01:50;23.50;53.40
12164;DHT22;6145;50.192;10.064;2023-06-01T07:04:17;23.60;52.60
12164;DHT22;6145;50.192;10.064;2023-06-01T07:06:44;23.70;51.60
12164;DHT22;6145;50.192;10.064;2023-06-01T07:09:11;23.70;51.60
12164;DHT22;6145;50.192;10.064;2023-06-01T07:11:41;23.80;51.30
12164;DHT22;6145;50.192;10.064;2023-06-01T07:14:08;23.90;51.20
12164;DHT22;6145;50.192;10.064;2023-06-01T07:16:35;24.10;51.30
12164;DHT22;6145;50.192;10.064;2023-06-01T07:19:02;24.40;51.00
12164;DHT22;6145;50.192;10.064;2023-06-01T07:21:29;24.60;49.80
12164;DHT22;6145;50.192;10.064;2023-06-01T07:23:56;24.90;49.70
12164;DHT22;6145;50.192;10.064;2023-06-01T07:26:23;25.20;48.50
12164;DHT22;6145;50.192;10.064;2023-06-01T07:28:52;25.10;47.30
12164;DHT22;6145;50.192;10.064;2023-06-01T07:31:19;25.20;48.00
12164;DHT22;6145;50.192;10.064;2023-06-01T07:33:47;25.40;47.80
12164;DHT22;6145;50.192;10.064;2023-06-01T07:36:13;25.50;47.70
12164;DHT22;6145;50.192;10.064;2023-06-01T07:38:41;25.60;47.20
12164;DHT22;6145;50.192;10.064;2023-06-01T07:41:08;25.70;47.00
12164;DHT22;6145;50.192;10.064;2023-06-01T07:43:36;25.80;46.70
12164;DHT22;6145;50.192;10.064;2023-06-01T07:46:04;25.90;46.60
12164;DHT22;6145;50.192;10.064;2023-06-01T07:48:31;26.10;46.40
12164;DHT22;6145;50.192;10.064;2023-06-01T07:51:04;26.30;45.60
12164;DHT22;6145;50.192;10.064;2023-06-01T07:53:31;26.50;45.00
12164;DHT22;6145;50.192;10.064;2023-06-01T07:55:58;26.60;44.90
12164;DHT22;6145;50.192;10.064;2023-06-01T07:58:25;26.60;44.50
12164;DHT22;6145;50.192;10.064;2023-06-01T08:00:52;26.60;44.10
12164;DHT22;6145;50.192;10.064;2023-06-01T08:03:21;26.70;43.90
12164;DHT22;6145;50.192;10.064;2023-06-01T08:05:51;26.80;44.00
12164;DHT22;6145;50.192;10.064;2023-06-01T08:08:19;26.80;43.80
12164;DHT22;6145;50.192;10.064;2023-06-01T08:10:47;26.80;42.80
12164;DHT22;6145;50.192;10.064;2023-06-01T08:13:13;27.00;42.80
12164;DHT22;6145;50.192;10.064;2023-06-01T08:15:40;26.90;43.20
12164;DHT22;6145;50.192;10.064;2023-06-01T08:18:08;27.30;42.40
12164;DHT22;6145;50.192;10.064;2023-06-01T08:20:36;27.40;40.40
12164;DHT22;6145;50.192;10.064;2023-06-01T08:23:03;27.60;41.30
12164;DHT22;6145;50.192;10.064;2023-06-01T08:25:30;27.50;41.70
12164;DHT22;6145;50.192;10.064;2023-06-01T08:28:00;27.60;41.70
12164;DHT22;6145;50.192;10.064;2023-06-01T08:30:26;27.70;40.90
12164;DHT22;6145;50.192;10.064;2023-06-01T08:32:53;27.70;40.70
12164;DHT22;6145;50.192;10.064;2023-06-01T08:35:20;27.80;41.60
12164;DHT22;6145;50.192;10.064;2023-06-01T08:37:49;27.90;40.70
12164;DHT22;6145;50.192;10.064;2023-06-01T08:40:16;27.90;40.80
12164;DHT22;6145;50.192;10.064;2023-06-01T08:42:49;28.00;38.50
12164;DHT22;6145;50.192;10.064;2023-06-01T08:45:23;28.00;39.70
12164;DHT22;6145;50.192;10.064;2023-06-01T08:47:53;28.20;40.70
12164;DHT22;6145;50.192;10.064;2023-06-01T08:50:20;28.20;40.60
12164;DHT22;6145;50.192;10.064;2023-06-01T08:52:53;28.30;40.20
12164;DHT22;6145;50.192;10.064;2023-06-01T08:55:21;28.30;40.30
12164;DHT22;6145;50.192;10.064;2023-06-01T08:57:49;28.60;39.70
12164;DHT22;6145;50.192;10.064;2023-06-01T09:00:17;28.70;39.70
12164;DHT22;6145;50.192;10.064;2023-06-01T09:02:44;28.80;38.90
12164;DHT22;6145;50.192;10.064;2023-06-01T09:05:12;28.90;38.90
12164;DHT22;6145;50.192;10.064;2023-06-01T09:07:39;28.80;37.60
12164;DHT22;6145;50.192;10.064;2023-06-01T09:10:08;29.40;37.90
12164;DHT22;6145;50.192;10.064;2023-06-01T09:12:37;29.20;37.50
12164;DHT22;6145;50.192;10.064;2023-06-01T09:15:08;29.20;34.70
12164;DHT22;6145;50.192;10.064;2023-06-01T09:17:36;29.20;34.70
12164;DHT22;6145;50.192;10.064;2023-06-01T09:20:04;29.20;35.40
12164;DHT22;6145;50.192;10.064;2023-06-01T09:22:41;29.20;33.30
12164;DHT22;6145;50.192;10.064;2023-06-01T09:25:11;29.20;35.90
12164;DHT22;6145;50.192;10.064;2023-06-01T09:27:44;29.20;36.90
12164;DHT22;6145;50.192;10.064;2023-06-01T09:30:12;29.30;36.70
12164;DHT22;6145;50.192;10.064;2023-06-01T09:32:39;29.40;37.00
12164;DHT22;6145;50.192;10.064;2023-06-01T09:35:07;29.50;36.20
12164;DHT22;6145;50.192;10.064;2023-06-01T09:37:35;29.60;35.90
12164;DHT22;6145;50.192;10.064;2023-06-01T09:40:17;29.70;36.50
12164;DHT22;6145;50.192;10.064;2023-06-01T09:42:44;29.90;36.90
12164;DHT22;6145;50.192;10.064;2023-06-01T09:45:17;30.00;37.00
12164;DHT22;6145;50.192;10.064;2023-06-01T09:47:44;30.10;36.20
12164;DHT22;6145;50.192;10.064;2023-06-01T09:50:12;30.10;36.90
12164;DHT22;6145;50.192;10.064;2023-06-01T09:52:58;30.10;36.70
12164;DHT22;6145;50.192;10.064;2023-06-01T09:55:26;30.20;35.00
12164;DHT22;6145;50.192;10.064;2023-06-01T09:58:17;30.10;33.40
12164;DHT22;6145;50.192;10.064;2023-06-01T10:00:45;30.00;33.40
12164;DHT22;6145;50.192;10.064;2023-06-01T10:03:13;29.80;33.30
12164;DHT22;6145;50.192;10.064;2023-06-01T10:05:41;29.70;33.40
12164;DHT22;6145;50.192;10.064;2023-06-01T10:08:10;29.60;36.50
12164;DHT22;6145;50.192;10.064;2023-06-01T10:10:42;29.60;34.60
12164;DHT22;6145;50.192;10.064;2023-06-01T10:13:10;29.60;35.90
12164;DHT22;6145;50.192;10.064;2023-06-01T10:15:36;29.80;36.50
12164;DHT22;6145;50.192;10.064;2023-06-01T10:18:04;29.80;37.10
12164;DHT22;6145;50.192;10.064;2023-06-01T10:20:32;30.20;38.10
12164;DHT22;6145;50.192;10.064;2023-06-01T10:23:00;30.30;37.50
12164;DHT22;6145;50.192;10.064;2023-06-01T10:25:31;30.40;36.70
12164;DHT22;6145;50.192;10.064;2023-06-01T10:28:03;30.60;35.50
12164;DHT22;6145;50.192;10.064;2023-06-01T10:30:33;30.70;36.60
12164;DHT22;6145;50.192;10.064;2023-06-01T10:33:00;30.90;37.20
12164;DHT22;6145;50.192;10.064;2023-06-01T10:36:00;31.10;35.80
12164;DHT22;6145;50.192;10.064;2023-06-01T10:38:27;31.30;34.90
12164;DHT22;6145;50.192;10.064;2023-06-01T10:41:24;31.30;34.40
12164;DHT22;6145;50.192;10.064;2023-06-01T10:43:56;31.40;34.30
12164;DHT22;6145;50.192;10.064;2023-06-01T10:46:37;31.50;35.10
12164;DHT22;6145;50.192;10.064;2023-06-01T10:49:06;31.70;33.90
12164;DHT22;6145;50.192;10.064;2023-06-01T10:51:33;31.70;33.40
12164;DHT22;6145;50.192;10.064;2023-06-01T10:54:24;31.60;33.50
12164;DHT22;6145;50.192;10.064;2023-06-01T10:57:19;31.60;33.10
12164;DHT22;6145;50.192;10.064;2023-06-01T11:00:13;31.50;32.40
12164;DHT22;6145;50.192;10.064;2023-06-01T11:02:49;31.40;33.00
12164;DHT22;6145;50.192;10.064;2023-06-01T11:05:40;31.30;33.00
12164;DHT22;6145;50.192;10.064;2023-06-01T11:08:50;31.50;34.30
12164;DHT22;6145;50.192;10.064;2023-06-01T11:11:18;31.50;34.20
12164;DHT22;6145;50.192;10.064;2023-06-01T11:14:08;31.50;33.50
12164;DHT22;6145;50.192;10.064;2023-06-01T11:16:38;31.60;33.70
12164;DHT22;6145;50.192;10.064;2023-06-01T11:19:06;31.70;33.80
12164;DHT22;6145;50.192;10.064;2023-06-01T11:21:36;31.80;33.50
12164;DHT22;6145;50.192;10.064;2023-06-01T11:24:06;31.90;34.50
12164;DHT22;6145;50.192;10.064;2023-06-01T11:26:36;32.00;34.60
12164;DHT22;6145;50.192;10.064;2023-06-01T11:29:09;32.20;33.90
12164;DHT22;6145;50.192;10.064;2023-06-01T11:31:40;32.30;34.60
12164;DHT22;6145;50.192;10.064;2023-06-01T11:34:10;32.50;33.80
12164;DHT22;6145;50.192;10.064;2023-06-01T11:36:42;32.60;33.00
12164;DHT22;6145;50.192;10.064;2023-06-01T11:39:27;32.70;33.00
12164;DHT22;6145;50.192;10.064;2023-06-01T11:42:04;32.80;32.00
12164;DHT22;6145;50.192;10.064;2023-06-01T11:44:35;32.80;32.50
12164;DHT22;6145;50.192;10.064;2023-06-01T11:47:05;32.80;32.40
12164;DHT22;6145;50.192;10.064;2023-06-01T11:49:40;32.80;32.60
12164;DHT22;6145;50.192;10.064;2023-06-01T11:52:09;32.90;33.30
12164;DHT22;6145;50.192;10.064;2023-06-01T11:54:37;33.00;33.60
12164;DHT22;6145;50.192;10.064;2023-06-01T11:57:04;33.00;31.40
12164;DHT22;6145;50.192;10.064;2023-06-01T11:59:36;32.90;32.60
12164;DHT22;6145;50.192;10.064;2023-06-01T12:02:16;33.00;31.70
12164;DHT22;6145;50.192;10.064;2023-06-01T12:04:53;33.00;33.00
12164;DHT22;6145;50.192;10.064;2023-06-01T12:07:20;33.00;34.10
12164;DHT22;6145;50.192;10.064;2023-06-01T12:09:48;33.10;33.10
12164;DHT22;6145;50.192;10.064;2023-06-01T12:12:15;33.10;33.10
12164;DHT22;6145;50.192;10.064;2023-06-01T12:14:42;33.10;31.70
12164;DHT22;6145;50.192;10.064;2023-06-01T12:17:11;33.20;31.00
12164;DHT22;6145;50.192;10.064;2023-06-01T12:19:49;33.30;30.90
12164;DHT22;6145;50.192;10.064;2023-06-01T12:22:16;33.30;32.00
12164;DHT22;6145;50.192;10.064;2023-06-01T12:24:44;33.30;32.30
12164;DHT22;6145;50.192;10.064;2023-06-01T12:27:15;33.40;32.50
12164;DHT22;6145;50.192;10.064;2023-06-01T12:29:43;33.50;30.70
12164;DHT22;6145;50.192;10.064;2023-06-01T12:32:13;33.40;29.90
12164;DHT22;6145;50.192;10.064;2023-06-01T12:34:41;33.30;31.50
12164;DHT22;6145;50.192;10.064;2023-06-01T12:37:13;33.40;31.30
12164;DHT22;6145;50.192;10.064;2023-06-01T12:39:41;33.30;30.70
12164;DHT22;6145;50.192;10.064;2023-06-01T12:42:08;33.30;31.00
12164;DHT22;6145;50.192;10.064;2023-06-01T12:44:37;33.40;31.40
12164;DHT22;6145;50.192;10.064;2023-06-01T12:47:06;33.50;32.40
12164;DHT22;6145;50.192;10.064;2023-06-01T12:49:34;33.50;30.80
12164;DHT22;6145;50.192;10.064;2023-06-01T12:52:04;33.50;29.80
12164;DHT22;6145;50.192;10.064;2023-06-01T12:54:31;33.50;30.00
12164;DHT22;6145;50.192;10.064;2023-06-01T12:56:58;33.50;30.80
12164;DHT22;6145;50.192;10.064;2023-06-01T12:59:25;33.50;30.80
12164;DHT22;6145;50.192;10.064;2023-06-01T13:01:59;33.50;30.00
12164;DHT22;6145;50.192;10.064;2023-06-01T13:04:27;33.40;30.70
12164;DHT22;6145;50.192;10.064;2023-06-01T13:06:56;33.40;30.00
12164;DHT22;6145;50.192;10.064;2023-06-01T13:09:23;33.30;30.80
12164;DHT22;6145;50.192;10.064;2023-06-01T13:11:50;33.20;31.20
12164;DHT22;6145;50.192;10.064;2023-06-01T13:14:17;33.10;31.90
12164;DHT22;6145;50.192;10.064;2023-06-01T13:16:45;33.20;32.50
12164;DHT22;6145;50.192;10.064;2023-06-01T13:19:11;33.20;32.50
12164;DHT22;6145;50.192;10.064;2023-06-01T13:21:39;33.10;31.30
12164;DHT22;6145;50.192;10.064;2023-06-01T13:24:07;33.20;31.90
12164;DHT22;6145;50.192;10.064;2023-06-01T13:26:36;33.30;31.30
12164;DHT22;6145;50.192;10.064;2023-06-01T13:29:03;33.30;32.40
12164;DHT22;6145;50.192;10.064;2023-06-01T13:31:32;33.30;32.70
12164;DHT22;6145;50.192;10.064;2023-06-01T13:34:00;33.30;32.20
12164;DHT22;6145;50.192;10.064;2023-06-01T13:36:27;33.30;32.30
12164;DHT22;6145;50.192;10.064;2023-06-01T13:38:54;33.40;30.70
12164;DHT22;6145;50.192;10.064;2023-06-01T13:41:25;33.40;31.20
12164;DHT22;6145;50.192;10.064;2023-06-01T13:43:51;33.40;30.10
12164;DHT22;6145;50.192;10.064;2023-06-01T13:46:18;33.30;30.40
12164;DHT22;6145;50.192;10.064;2023-06-01T13:48:46;33.30;30.90
12164;DHT22;6145;50.192;10.064;2023-06-01T13:51:12;33.30;30.40
12164;DHT22;6145;50.192;10.064;2023-06-01T13:53:39;33.30;31.40
12164;DHT22;6145;50.192;10.064;2023-06-01T13:56:06;33.30;30.70
12164;DHT22;6145;50.192;10.064;2023-06-01T13:58:35;33.20;30.70
12164;DHT22;6145;50.192;10.064;2023-06-01T14:01:02;33.30;32.20
12164;DHT22;6145;50.192;10.064;2023-06-01T14:03:29;33.40;31.00
12164;DHT22;6145;50.192;10.064;2023-06-01T14:05:56;33.30;32.00
12164;DHT22;6145;50.192;10.064;2023-06-01T14:08:23;33.40;33.50
12164;DHT22;6145;50.192;10.064;2023-06-01T14:10:50;33.50;33.00
12164;DHT22;6145;50.192;10.064;2023-06-01T14:13:17;33.60;33.20
12164;DHT22;6145;50.192;10.064;2023-06-01T14:15:45;33.70;33.10
12164;DHT22;6145;50.192;10.064;2023-06-01T14:18:12;33.80;33.00
12164;DHT22;6145;50.192;10.064;2023-06-01T14:20:39;33.90;33.30
12164;DHT22;6145;50.192;10.064;2023-06-01T14:23:06;34.00;32.30
12164;DHT22;6145;50.192;10.064;2023-06-01T14:25:35;34.00;32.40
12164;DHT22;6145;50.192;10.064;2023-06-01T14:28:02;34.00;31.90
12164;DHT22;6145;50.192;10.064;2023-06-01T14:30:32;34.10;32.40
12164;DHT22;6145;50.192;10.064;2023-06-01T14:33:01;34.20;32.20
12164;DHT22;6145;50.192;10.064;2023-06-01T14:35:27;34.20;32.70
12164;DHT22;6145;50.192;10.064;2023-06-01T14:37:54;34.20;31.70
12164;DHT22;6145;50.192;10.064;2023-06-01T14:40:22;34.20;32.00
12164;DHT22;6145;50.192;10.064;2023-06-01T14:42:48;34.20;32.40
12164;DHT22;6145;50.192;10.064;2023-06-01T14:45:15;34.20;31.50
12164;DHT22;6145;50.192;10.064;2023-06-01T14:47:45;34.20;31.20
12164;DHT22;6145;50.192;10.064;2023-06-01T14:50:13;34.20;30.20
12164;DHT22;6145;50.192;10.064;2023-06-01T14:52:43;34.20;30.10
12164;DHT22;6145;50.192;10.064;2023-06-01T14:55:10;34.10;30.40
12164;DHT22;6145;50.192;10.064;2023-06-01T14:57:37;34.10;30.00
12164;DHT22;6145;50.192;10.064;2023-06-01T15:00:05;34.00;30.50
12164;DHT22;6145;50.192;10.064;2023-06-01T15:02:33;34.00;28.50
12164;DHT22;6145;50.192;10.064;2023-06-01T15:05:00;33.80;29.20
12164;DHT22;6145;50.192;10.064;2023-06-01T15:07:28;33.80;30.00
12164;DHT22;6145;50.192;10.064;2023-06-01T15:09:55;33.70;29.60
12164;DHT22;6145;50.192;10.064;2023-06-01T15:12:23;33.70;30.70
12164;DHT22;6145;50.192;10.064;2023-06-01T15:14:50;33.70;30.80
12164;DHT22;6145;50.192;10.064;2023-06-01T15:17:17;33.70;30.70
12164;DHT22;6145;50.192;10.064;2023-06-01T15:19:43;33.70;30.80
12164;DHT22;6145;50.192;10.064;2023-06-01T15:22:10;33.60;29.60
12164;DHT22;6145;50.192;10.064;2023-06-01T15:24:40;33.40;30.80
12164;DHT22;6145;50.192;10.064;2023-06-01T15:27:07;33.40;31.00
12164;DHT22;6145;50.192;10.064;2023-06-01T15:29:34;33.30;31.60
12164;DHT22;6145;50.192;10.064;2023-06-01T15:32:01;33.40;31.60
12164;DHT22;6145;50.192;10.064;2023-06-01T15:34:28;33.30;31.20
12164;DHT22;6145;50.192;10.064;2023-06-01T15:36:55;33.30;31.10
12164;DHT22;6145;50.192;10.064;2023-06-01T15:39:22;33.30;30.80
12164;DHT22;6145;50.192;10.064;2023-06-01T15:41:53;33.30;30.50